sensor_id;sensor_type;location;lat;lon;timestamp;pressure;altitude;pressure_sealevel;temperature;humidity
31403;BME280;18039;52.188;21.024;2023-05-03T00:00:06;77018.63;;;-141.45;74.11
31403;BME280;18039;52.188;21.024;2023-05-03T00:02:54;77014.56;;;-141.45;74.26
31403;BME280;18039;52.188;21.024;2023-05-03T00:05:24;77022.66;;;-141.45;73.86
31403;BME280;18039;52.188;21.024;2023-05-03T00:07:52;77022.66;;;-141.45;72.11
31403;BME280;18039;52.188;21.024;2023-05-03T00:10:19;77018.63;;;-141.45;71.92
31403;BME280;18039;52.188;21.024;2023-05-03T00:12:47;77030.78;;;-141.45;71.46
31403;BME280;18039;52.188;21.024;2023-05-03T00:15:14;77030.78;;;-141.45;71.47
31403;BME280;18039;52.188;21.024;2023-05-03T00:17:42;77030.78;;;-141.45;71.42
31403;BME280;18039;52.188;21.024;2023-05-03T00:20:09;77030.78;;;-141.45;71.41
31403;BME280;18039;52.188;21.024;2023-05-03T00:22:38;77032.81;;;-141.45;71.91
31403;BME280;18039;52.188;21.024;2023-05-03T00:25:07;77038.88;;;-141.45;71.79
31403;BME280;18039;52.188;21.024;2023-05-03T00:27:34;77042.94;;;-141.45;72.87
31403;BME280;18039;52.188;21.024;2023-05-03T00:30:03;77047.00;;;-141.45;73.44
31403;BME280;18039;52.188;21.024;2023-05-03T00:32:30;77047.00;;;-141.45;74.20
31403;BME280;18039;52.188;21.024;2023-05-03T00:34:57;77042.94;;;-141.45;73.06
31403;BME280;18039;52.188;21.024;2023-05-03T00:37:25;77042.94;;;-141.45;72.92
31403;BME280;18039;52.188;21.024;2023-05-03T00:39:52;77040.91;;;-141.45;72.89
31403;BME280;18039;52.188;21.024;2023-05-03T00:42:20;77042.94;;;-141.45;72.55
31403;BME280;18039;52.188;21.024;2023-05-03T00:44:47;77051.06;;;-141.45;72.85
31403;BME280;18039;52.188;21.024;2023-05-03T00:47:15;77051.06;;;-141.45;73.48
31403;BME280;18039;52.188;21.024;2023-05-03T00:49:42;77071.31;;;-141.45;73.84
31403;BME280;18039;52.188;21.024;2023-05-03T00:52:10;77067.28;;;-141.45;73.86
31403;BME280;18039;52.188;21.024;2023-05-03T00:54:38;77057.13;;;-141.45;73.78
31403;BME280;18039;52.188;21.024;2023-05-03T00:57:05;77067.28;;;-141.45;74.21
31403;BME280;18039;52.188;21.024;2023-05-03T00:59:33;77079.44;;;-141.45;73.94
31403;BME280;18039;52.188;21.024;2023-05-03T01:02:01;77083.50;;;-141.45;74.58
31403;BME280;18039;52.188;21.024;2023-05-03T01:04:31;77095.66;;;-141.45;74.83
31403;BME280;18039;52.188;21.024;2023-05-03T01:09:54;77115.94;;;-141.45;75.48
31403;BME280;18039;52.188;21.024;2023-05-03T01:12:29;77130.13;;;-141.45;75.67
31403;BME280;18039;52.188;21.024;2023-05-03T01:15:09;77132.16;;;-141.45;76.37
31403;BME280;18039;52.188;21.024;2023-05-03T01:17:40;77144.31;;;-141.45;75.85
31403;BME280;18039;52.188;21.024;2023-05-03T01:20:12;77144.31;;;-141.45;76.62
31403;BME280;18039;52.188;21.024;2023-05-03T01:27:38;77170.66;;;-141.45;76.94
31403;BME280;18039;52.188;21.024;2023-05-03T01:30:10;77168.63;;;-141.45;76.81
31403;BME280;18039;52.188;21.024;2023-05-03T01:35:51;77188.91;;;-141.45;77.18
31403;BME280;18039;52.188;21.024;2023-05-03T01:38:20;77184.84;;;-141.45;75.17
31403;BME280;18039;52.188;21.024;2023-05-03T01:40:51;77197.03;;;-141.45;75.91
31403;BME280;18039;52.188;21.024;2023-05-03T01:43:20;77188.91;;;-141.45;76.59
31403;BME280;18039;52.188;21.024;2023-05-03T01:45:49;77180.81;;;-141.45;76.09
31403;BME280;18039;52.188;21.024;2023-05-03T01:48:18;77176.75;;;-141.45;76.25
31403;BME280;18039;52.188;21.024;2023-05-03T01:50:46;77172.69;;;-141.45;76.24
31403;BME280;18039;52.188;21.024;2023-05-03T01:53:13;77168.63;;;-141.45;75.97
31403;BME280;18039;52.188;21.024;2023-05-03T01:55:41;77160.53;;;-141.45;73.55
31403;BME280;18039;52.188;21.024;2023-05-03T01:58:10;77160.53;;;-141.45;73.05
31403;BME280;18039;52.188;21.024;2023-05-03T02:00:38;77156.47;;;-141.45;73.07
31403;BME280;18039;52.188;21.024;2023-05-03T02:03:05;77156.47;;;-141.45;73.43
31403;BME280;18039;52.188;21.024;2023-05-03T02:05:33;77148.38;;;-141.45;73.64
31403;BME280;18039;52.188;21.024;2023-05-03T02:08:01;77148.38;;;-141.45;73.32
31403;BME280;18039;52.188;21.024;2023-05-03T02:10:28;77148.38;;;-141.45;72.05
31403;BME280;18039;52.188;21.024;2023-05-03T02:12:55;77146.34;;;-141.45;72.62
31403;BME280;18039;52.188;21.024;2023-05-03T02:15:23;77136.19;;;-141.45;72.44
31403;BME280;18039;52.188;21.024;2023-05-03T02:17:50;77140.25;;;-141.45;72.03
31403;BME280;18039;52.188;21.024;2023-05-03T02:20:20;77148.38;;;-141.45;71.71
31403;BME280;18039;52.188;21.024;2023-05-03T02:22:47;77156.47;;;-141.45;70.87
31403;BME280;18039;52.188;21.024;2023-05-03T02:25:14;77160.53;;;-141.45;70.91
31403;BME280;18039;52.188;21.024;2023-05-03T02:27:43;77166.59;;;-141.45;70.53
31403;BME280;18039;52.188;21.024;2023-05-03T02:30:11;77164.59;;;-141.45;70.30
31403;BME280;18039;52.188;21.024;2023-05-03T02:32:42;77168.63;;;-141.45;69.50
31403;BME280;18039;52.188;21.024;2023-05-03T02:35:09;77164.59;;;-141.45;69.57
31403;BME280;18039;52.188;21.024;2023-05-03T02:37:36;77168.63;;;-141.45;69.83
31403;BME280;18039;52.188;21.024;2023-05-03T02:40:08;77176.75;;;-141.45;69.83
31403;BME280;18039;52.188;21.024;2023-05-03T02:42:39;77172.69;;;-141.45;69.42
31403;BME280;18039;52.188;21.024;2023-05-03T02:45:07;77184.84;;;-141.45;69.41
31403;BME280;18039;52.188;21.024;2023-05-03T02:47:34;77176.75;;;-141.45;69.13
31403;BME280;18039;52.188;21.024;2023-05-03T02:50:02;77176.75;;;-141.45;69.35
31403;BME280;18039;52.188;21.024;2023-05-03T02:52:33;77184.84;;;-141.45;69.87
31403;BME280;18039;52.188;21.024;2023-05-03T02:55:00;77188.91;;;-141.45;70.61
31403;BME280;18039;52.188;21.024;2023-05-03T02:57:28;77192.97;;;-141.45;70.76
31403;BME280;18039;52.188;21.024;2023-05-03T02:59:57;77197.03;;;-141.45;71.11
31403;BME280;18039;52.188;21.024;2023-05-03T03:02:25;77209.19;;;-141.45;71.26
31403;BME280;18039;52.188;21.024;2023-05-03T03:04:53;77207.16;;;-141.45;71.73
31403;BME280;18039;52.188;21.024;2023-05-03T03:07:21;77205.13;;;-141.45;71.66
31403;BME280;18039;52.188;21.024;2023-05-03T03:09:52;77205.13;;;-141.45;71.71
31403;BME280;18039;52.188;21.024;2023-05-03T03:12:20;77205.13;;;-141.45;71.76
31403;BME280;18039;52.188;21.024;2023-05-03T03:14:47;77205.13;;;-141.45;71.91
31403;BME280;18039;52.188;21.024;2023-05-03T03:17:14;77197.03;;;-141.45;72.06
31403;BME280;18039;52.188;21.024;2023-05-03T03:19:41;77195.00;;;-141.45;71.91
31403;BME280;18039;52.188;21.024;2023-05-03T03:22:08;77201.06;;;-141.45;71.75
31403;BME280;18039;52.188;21.024;2023-05-03T03:24:36;77205.13;;;-141.45;71.82
31403;BME280;18039;52.188;21.024;2023-05-03T03:27:04;77209.19;;;-141.45;71.41
31403;BME280;18039;52.188;21.024;2023-05-03T03:29:32;77209.19;;;-141.45;70.79
31403;BME280;18039;52.188;21.024;2023-05-03T03:32:00;77211.22;;;-141.45;71.05
31403;BME280;18039;52.188;21.024;2023-05-03T03:34:28;77217.28;;;-141.45;71.69
31403;BME280;18039;52.188;21.024;2023-05-03T03:36:55;77209.19;;;-141.45;72.35
31403;BME280;18039;52.188;21.024;2023-05-03T03:39:25;77217.28;;;-141.45;72.97
31403;BME280;18039;52.188;21.024;2023-05-03T03:41:52;77225.41;;;-141.45;73.55
31403;BME280;18039;52.188;21.024;2023-05-03T03:44:20;77231.50;;;-141.45;74.18
31403;BME280;18039;52.188;21.024;2023-05-03T03:46:47;77229.47;;;-141.45;74.20
31403;BME280;18039;52.188;21.024;2023-05-03T03:49:16;77229.47;;;-141.45;74.25
31403;BME280;18039;52.188;21.024;2023-05-03T03:51:44;77215.28;;;-141.45;73.60
31403;BME280;18039;52.188;21.024;2023-05-03T03:54:12;77229.47;;;-141.45;73.97
31403;BME280;18039;52.188;21.024;2023-05-03T03:56:44;77227.44;;;-141.45;74.03
31403;BME280;18039;52.188;21.024;2023-05-03T03:59:12;77229.47;;;-141.45;73.93
31403;BME280;18039;52.188;21.024;2023-05-03T04:01:39;77229.47;;;-141.45;74.21
31403;BME280;18039;52.188;21.024;2023-05-03T04:04:07;77225.41;;;-141.45;74.42
31403;BME280;18039;52.188;21.024;2023-05-03T04:06:35;77221.34;;;-141.45;73.22
31403;BME280;18039;52.188;21.024;2023-05-03T04:09:06;77225.41;;;-141.45;71.60
31403;BME280;18039;52.188;21.024;2023-05-03T04:11:34;77229.47;;;-141.45;70.28
31403;BME280;18039;52.188;21.024;2023-05-03T04:14:03;77241.63;;;-141.45;70.79
31403;BME280;18039;52.188;21.024;2023-05-03T04:16:31;77249.75;;;-141.45;70.80
31403;BME280;18039;52.188;21.024;2023-05-03T04:19:01;77249.75;;;-141.45;70.03
31403;BME280;18039;52.188;21.024;2023-05-03T04:21:30;77241.63;;;-141.45;69.35
31403;BME280;18039;52.188;21.024;2023-05-03T04:23:58;77245.69;;;-141.45;69.00
31403;BME280;18039;52.188;21.024;2023-05-03T04:26:26;77241.63;;;-141.45;68.36
31403;BME280;18039;52.188;21.024;2023-05-03T04:29:05;77253.78;;;-141.45;67.27
31403;BME280;18039;52.188;21.024;2023-05-03T04:31:34;77261.91;;;-141.45;66.91
31403;BME280;18039;52.188;21.024;2023-05-03T04:34:01;77270.00;;;-141.45;66.94
31403;BME280;18039;52.188;21.024;2023-05-03T04:36:29;77263.94;;;-141.45;67.44
31403;BME280;18039;52.188;21.024;2023-05-03T04:38:57;77265.97;;;-141.45;66.80
31403;BME280;18039;52.188;21.024;2023-05-03T04:41:25;77270.00;;;-141.45;67.39
31403;BME280;18039;52.188;21.024;2023-05-03T04:43:53;77257.84;;;-141.45;68.36
31403;BME280;18039;52.188;21.024;2023-05-03T04:46:20;77257.84;;;-141.45;67.14
31403;BME280;18039;52.188;21.024;2023-05-03T04:48:49;77255.81;;;-141.45;67.11
31403;BME280;18039;52.188;21.024;2023-05-03T04:51:17;77257.84;;;-141.45;66.19
31403;BME280;18039;52.188;21.024;2023-05-03T04:53:46;77253.78;;;-141.45;66.80
31403;BME280;18039;52.188;21.024;2023-05-03T04:56:17;77241.63;;;-141.45;66.52
31403;BME280;18039;52.188;21.024;2023-05-03T04:58:45;77209.19;;;-141.45;66.67
31403;BME280;18039;52.188;21.024;2023-05-03T05:01:14;77152.41;;;-141.45;66.67
31403;BME280;18039;52.188;21.024;2023-05-03T05:03:42;77128.09;;;-141.45;63.95
31403;BME280;18039;52.188;21.024;2023-05-03T05:06:16;77170.66;;;-141.45;63.98
31403;BME280;18039;52.188;21.024;2023-05-03T05:08:44;77201.06;;;-141.45;63.93
31403;BME280;18039;52.188;21.024;2023-05-03T05:11:13;77225.41;;;-141.45;64.13
31403;BME280;18039;52.188;21.024;2023-05-03T05:13:41;77233.53;;;-141.45;64.93
31403;BME280;18039;52.188;21.024;2023-05-03T05:16:08;77229.47;;;-141.45;64.20
31403;BME280;18039;52.188;21.024;2023-05-03T05:18:38;77209.19;;;-141.45;63.13
31403;BME280;18039;52.188;21.024;2023-05-03T05:21:07;77217.28;;;-141.45;63.18
31403;BME280;18039;52.188;21.024;2023-05-03T05:23:36;77217.28;;;-141.45;62.74
31403;BME280;18039;52.188;21.024;2023-05-03T05:26:04;77225.41;;;-141.45;63.34
31403;BME280;18039;52.188;21.024;2023-05-03T05:28:32;77237.56;;;-141.45;63.99
31403;BME280;18039;52.188;21.024;2023-05-03T05:31:00;77227.44;;;-141.45;64.32
31403;BME280;18039;52.188;21.024;2023-05-03T05:33:28;77213.25;;;-141.45;63.51
31403;BME280;18039;52.188;21.024;2023-05-03T05:35:57;77221.34;;;-141.45;62.45
31403;BME280;18039;52.188;21.024;2023-05-03T05:38:24;77227.44;;;-141.45;63.14
31403;BME280;18039;52.188;21.024;2023-05-03T05:40:55;77233.53;;;-141.45;62.62
31403;BME280;18039;52.188;21.024;2023-05-03T05:43:23;77225.41;;;-141.45;61.95
31403;BME280;18039;52.188;21.024;2023-05-03T05:45:50;77223.38;;;-141.45;62.74
31403;BME280;18039;52.188;21.024;2023-05-03T05:48:19;77233.53;;;-141.45;61.24
31403;BME280;18039;52.188;21.024;2023-05-03T05:50:46;77241.63;;;-141.45;60.98
31403;BME280;18039;52.188;21.024;2023-05-03T05:53:15;77245.69;;;-141.45;60.45
31403;BME280;18039;52.188;21.024;2023-05-03T05:55:49;77233.53;;;-141.45;60.14
31403;BME280;18039;52.188;21.024;2023-05-03T05:58:21;77221.34;;;-141.45;59.74
31403;BME280;18039;52.188;21.024;2023-05-03T06:00:52;77219.31;;;-141.45;58.57
31403;BME280;18039;52.188;21.024;2023-05-03T06:03:23;77227.44;;;-141.45;56.65
31403;BME280;18039;52.188;21.024;2023-05-03T06:05:50;77225.41;;;-141.45;58.36
31403;BME280;18039;52.188;21.024;2023-05-03T06:08:19;77217.28;;;-141.45;55.82
31403;BME280;18039;52.188;21.024;2023-05-03T06:10:47;77209.19;;;-141.45;55.13
31403;BME280;18039;52.188;21.024;2023-05-03T06:13:14;77205.13;;;-141.45;54.19
31403;BME280;18039;52.188;21.024;2023-05-03T06:15:45;77201.06;;;-141.45;52.59
31403;BME280;18039;52.188;21.024;2023-05-03T06:18:12;77197.03;;;-141.45;51.44
31403;BME280;18039;52.188;21.024;2023-05-03T06:20:39;77201.06;;;-141.45;51.07
31403;BME280;18039;52.188;21.024;2023-05-03T06:23:07;77195.00;;;-141.45;51.01
31403;BME280;18039;52.188;21.024;2023-05-03T06:25:36;77192.97;;;-141.45;51.65
31403;BME280;18039;52.188;21.024;2023-05-03T06:28:03;77192.97;;;-141.45;52.34
31403;BME280;18039;52.188;21.024;2023-05-03T06:30:33;77188.91;;;-141.45;52.63
31403;BME280;18039;52.188;21.024;2023-05-03T06:33:06;77174.72;;;-141.45;50.79
31403;BME280;18039;52.188;21.024;2023-05-03T06:35:34;77168.63;;;-141.45;49.62
31403;BME280;18039;52.188;21.024;2023-05-03T06:38:02;77168.63;;;-141.45;50.37
31403;BME280;18039;52.188;21.024;2023-05-03T06:40:29;77168.63;;;-141.45;50.17
31403;BME280;18039;52.188;21.024;2023-05-03T06:42:58;77156.47;;;-141.45;50.01
31403;BME280;18039;52.188;21.024;2023-05-03T06:45:38;77156.47;;;-141.45;49.73
31403;BME280;18039;52.188;21.024;2023-05-03T06:48:06;77142.28;;;-141.45;48.43
31403;BME280;18039;52.188;21.024;2023-05-03T06:50:33;77146.34;;;-141.45;48.10
31403;BME280;18039;52.188;21.024;2023-05-03T06:53:01;77144.31;;;-141.45;48.22
31403;BME280;18039;52.188;21.024;2023-05-03T06:55:28;77148.38;;;-141.45;47.99
31403;BME280;18039;52.188;21.024;2023-05-03T06:57:56;77160.53;;;-141.45;48.60
31403;BME280;18039;52.188;21.024;2023-05-03T07:00:23;77144.31;;;-141.45;49.64
31403;BME280;18039;52.188;21.024;2023-05-03T07:02:52;77128.09;;;-141.45;48.92
31403;BME280;18039;52.188;21.024;2023-05-03T07:05:21;77124.03;;;-141.45;49.71
31403;BME280;18039;52.188;21.024;2023-05-03T07:07:50;77119.97;;;-141.45;49.44
31403;BME280;18039;52.188;21.024;2023-05-03T07:10:19;77103.75;;;-141.45;49.67
31403;BME280;18039;52.188;21.024;2023-05-03T07:12:46;77111.88;;;-141.45;49.57
31403;BME280;18039;52.188;21.024;2023-05-03T07:15:14;77111.88;;;-141.45;49.24
31403;BME280;18039;52.188;21.024;2023-05-03T07:17:42;77101.72;;;-141.45;48.90
31403;BME280;18039;52.188;21.024;2023-05-03T07:20:11;77099.72;;;-141.45;48.29
31403;BME280;18039;52.188;21.024;2023-05-03T07:22:39;77095.66;;;-141.45;49.17
31403;BME280;18039;52.188;21.024;2023-05-03T07:25:07;77099.72;;;-141.45;48.04
31403;BME280;18039;52.188;21.024;2023-05-03T07:27:35;77089.56;;;-141.45;47.98
31403;BME280;18039;52.188;21.024;2023-05-03T07:30:03;77079.44;;;-141.45;47.64
31403;BME280;18039;52.188;21.024;2023-05-03T07:32:31;77065.25;;;-141.45;47.43
31403;BME280;18039;52.188;21.024;2023-05-03T07:34:59;77042.94;;;-141.45;47.66
31403;BME280;18039;52.188;21.024;2023-05-03T07:37:26;77018.63;;;-141.45;47.19
31403;BME280;18039;52.188;21.024;2023-05-03T07:39:54;76998.34;;;-141.45;48.22
31403;BME280;18039;52.188;21.024;2023-05-03T07:42:22;76961.84;;;-141.45;47.46
31403;BME280;18039;52.188;21.024;2023-05-03T07:44:50;76943.59;;;-141.45;47.77
31403;BME280;18039;52.188;21.024;2023-05-03T07:47:18;76941.56;;;-141.45;46.62
31403;BME280;18039;52.188;21.024;2023-05-03T07:49:45;76933.47;;;-141.45;46.56
31403;BME280;18039;52.188;21.024;2023-05-03T07:52:14;76915.22;;;-141.45;46.11
31403;BME280;18039;52.188;21.024;2023-05-03T07:54:41;76925.34;;;-141.45;45.63
31403;BME280;18039;52.188;21.024;2023-05-03T07:57:13;76941.56;;;-141.45;46.05
31403;BME280;18039;52.188;21.024;2023-05-03T07:59:43;76941.56;;;-141.45;46.56
31403;BME280;18039;52.188;21.024;2023-05-03T08:02:11;76937.53;;;-141.45;47.05
31403;BME280;18039;52.188;21.024;2023-05-03T08:04:39;76933.47;;;-141.45;46.01
31403;BME280;18039;52.188;21.024;2023-05-03T08:07:08;76917.25;;;-141.45;45.91
31403;BME280;18039;52.188;21.024;2023-05-03T08:09:35;76913.19;;;-141.45;45.91
31403;BME280;18039;52.188;21.024;2023-05-03T08:12:03;76937.53;;;-141.45;46.47
31403;BME280;18039;52.188;21.024;2023-05-03T08:14:30;76953.75;;;-141.45;47.38
31403;BME280;18039;52.188;21.024;2023-05-03T08:16:57;76961.84;;;-141.45;47.00
31403;BME280;18039;52.188;21.024;2023-05-03T08:19:25;76945.63;;;-141.45;47.26
31403;BME280;18039;52.188;21.024;2023-05-03T08:21:53;76911.16;;;-141.45;46.12
31403;BME280;18039;52.188;21.024;2023-05-03T08:24:22;76896.97;;;-141.45;45.02
31403;BME280;18039;52.188;21.024;2023-05-03T08:26:49;76888.88;;;-141.45;46.02
31403;BME280;18039;52.188;21.024;2023-05-03T08:29:16;76880.75;;;-141.45;45.67
31403;BME280;18039;52.188;21.024;2023-05-03T08:31:44;76876.69;;;-141.45;46.11
31403;BME280;18039;52.188;21.024;2023-05-03T08:34:13;76876.69;;;-141.45;46.75
31403;BME280;18039;52.188;21.024;2023-05-03T08:36:41;76880.75;;;-141.45;46.66
31403;BME280;18039;52.188;21.024;2023-05-03T08:39:10;76911.16;;;-141.45;46.77
31403;BME280;18039;52.188;21.024;2023-05-03T08:41:38;76941.56;;;-141.45;47.51
31403;BME280;18039;52.188;21.024;2023-05-03T08:44:06;76953.75;;;-141.45;48.57
31403;BME280;18039;52.188;21.024;2023-05-03T08:46:35;76984.16;;;-141.45;48.24
31403;BME280;18039;52.188;21.024;2023-05-03T08:49:04;76986.16;;;-141.45;47.01
31403;BME280;18039;52.188;21.024;2023-05-03T08:51:39;76957.78;;;-141.45;48.46
31403;BME280;18039;52.188;21.024;2023-05-03T08:54:07;76913.19;;;-141.45;49.07
31403;BME280;18039;52.188;21.024;2023-05-03T08:56:40;76860.47;;;-141.45;48.15
31403;BME280;18039;52.188;21.024;2023-05-03T08:59:10;76840.22;;;-141.45;47.08
31403;BME280;18039;52.188;21.024;2023-05-03T09:01:39;76866.56;;;-141.45;46.42
31403;BME280;18039;52.188;21.024;2023-05-03T09:04:08;76905.09;;;-141.45;46.02
31403;BME280;18039;52.188;21.024;2023-05-03T09:06:36;76949.69;;;-141.45;45.58
31403;BME280;18039;52.188;21.024;2023-05-03T09:09:05;76978.06;;;-141.45;46.48
31403;BME280;18039;52.188;21.024;2023-05-03T09:11:36;76945.63;;;-141.45;46.76
31403;BME280;18039;52.188;21.024;2023-05-03T09:14:14;76874.66;;;-141.45;45.86
31403;BME280;18039;52.188;21.024;2023-05-03T09:16:44;76828.03;;;-141.45;46.32
31403;BME280;18039;52.188;21.024;2023-05-03T09:19:13;76840.22;;;-141.45;45.05
31403;BME280;18039;52.188;21.024;2023-05-03T09:21:43;76850.34;;;-141.45;44.61
31403;BME280;18039;52.188;21.024;2023-05-03T09:24:17;76852.38;;;-141.45;45.07
31403;BME280;18039;52.188;21.024;2023-05-03T09:26:49;76824.00;;;-141.45;43.97
31403;BME280;18039;52.188;21.024;2023-05-03T09:29:28;76799.66;;;-141.45;44.42
31403;BME280;18039;52.188;21.024;2023-05-03T09:32:03;76815.88;;;-141.45;45.30
31403;BME280;18039;52.188;21.024;2023-05-03T09:34:36;76864.53;;;-141.45;46.06
31403;BME280;18039;52.188;21.024;2023-05-03T09:37:04;76901.03;;;-141.45;45.85
31403;BME280;18039;52.188;21.024;2023-05-03T09:39:32;76911.16;;;-141.45;44.91
31403;BME280;18039;52.188;21.024;2023-05-03T09:42:18;76872.66;;;-141.45;45.92
31403;BME280;18039;52.188;21.024;2023-05-03T09:44:49;76819.94;;;-141.45;45.38
31403;BME280;18039;52.188;21.024;2023-05-03T09:47:20;76815.88;;;-141.45;43.48
31403;BME280;18039;52.188;21.024;2023-05-03T09:49:50;76876.69;;;-141.45;44.40
31403;BME280;18039;52.188;21.024;2023-05-03T09:52:18;76929.41;;;-141.45;45.45
31403;BME280;18039;52.188;21.024;2023-05-03T09:54:48;76941.56;;;-141.45;45.47
31403;BME280;18039;52.188;21.024;2023-05-03T09:57:18;76929.41;;;-141.45;46.29
31403;BME280;18039;52.188;21.024;2023-05-03T09:59:45;76941.56;;;-141.45;44.55
31403;BME280;18039;52.188;21.024;2023-05-03T10:02:13;76945.63;;;-141.45;42.28
31403;BME280;18039;52.188;21.024;2023-05-03T10:04:46;76925.34;;;-141.45;42.20
31403;BME280;18039;52.188;21.024;2023-05-03T10:07:17;76925.34;;;-141.45;41.46
31403;BME280;18039;52.188;21.024;2023-05-03T10:09:46;76921.31;;;-141.45;41.52
31403;BME280;18039;52.188;21.024;2023-05-03T10:12:14;76925.34;;;-141.45;41.00
31403;BME280;18039;52.188;21.024;2023-05-03T10:14:47;76909.13;;;-141.45;42.36
31403;BME280;18039;52.188;21.024;2023-05-03T10:17:27;76888.88;;;-141.45;41.86
31403;BME280;18039;52.188;21.024;2023-05-03T10:20:39;76882.78;;;-141.45;41.34
31403;BME280;18039;52.188;21.024;2023-05-03T10:23:10;76866.56;;;-141.45;42.00
31403;BME280;18039;52.188;21.024;2023-05-03T10:25:40;76848.31;;;-141.45;42.48
31403;BME280;18039;52.188;21.024;2023-05-03T10:28:28;76815.88;;;-141.45;42.21
31403;BME280;18039;52.188;21.024;2023-05-03T10:30:55;76824.00;;;-141.45;41.28
31403;BME280;18039;52.188;21.024;2023-05-03T10:33:33;76807.78;;;-141.45;41.63
31403;BME280;18039;52.188;21.024;2023-05-03T10:36:06;76771.28;;;-141.45;42.34
31403;BME280;18039;52.188;21.024;2023-05-03T10:38:37;76759.13;;;-141.45;41.42
31403;BME280;18039;52.188;21.024;2023-05-03T10:41:04;76751.00;;;-141.45;40.63
31403;BME280;18039;52.188;21.024;2023-05-03T10:46:03;76732.75;;;-141.45;40.57
31403;BME280;18039;52.188;21.024;2023-05-03T10:48:33;76738.84;;;-141.45;39.89
31403;BME280;18039;52.188;21.024;2023-05-03T10:53:57;76801.69;;;-141.45;40.73
31403;BME280;18039;52.188;21.024;2023-05-03T10:56:24;76830.06;;;-141.45;40.66
31403;BME280;18039;52.188;21.024;2023-05-03T10:58:52;76807.78;;;-141.45;40.70
31403;BME280;18039;52.188;21.024;2023-05-03T11:01:23;76795.59;;;-141.45;40.13
31403;BME280;18039;52.188;21.024;2023-05-03T11:06:38;76775.34;;;-141.45;39.76
31403;BME280;18039;52.188;21.024;2023-05-03T11:09:08;76763.16;;;-141.45;40.45
31403;BME280;18039;52.188;21.024;2023-05-03T11:11:38;76775.34;;;-141.45;40.24
31403;BME280;18039;52.188;21.024;2023-05-03T11:14:07;76799.66;;;-141.45;40.13
31403;BME280;18039;52.188;21.024;2023-05-03T11:16:35;76771.28;;;-141.45;40.72
31403;BME280;18039;52.188;21.024;2023-05-03T11:19:03;76734.78;;;-141.45;40.07
31403;BME280;18039;52.188;21.024;2023-05-03T11:21:31;76726.69;;;-141.45;39.60
31403;BME280;18039;52.188;21.024;2023-05-03T11:24:00;76694.25;;;-141.45;39.45
31403;BME280;18039;52.188;21.024;2023-05-03T11:26:27;76682.09;;;-141.45;38.73
31403;BME280;18039;52.188;21.024;2023-05-03T11:28:54;76690.19;;;-141.45;39.00
31403;BME280;18039;52.188;21.024;2023-05-03T11:31:22;76665.88;;;-141.45;39.05
31403;BME280;18039;52.188;21.024;2023-05-03T11:33:50;76661.81;;;-141.45;37.96
31403;BME280;18039;52.188;21.024;2023-05-03T11:36:17;76698.31;;;-141.45;37.81
31403;BME280;18039;52.188;21.024;2023-05-03T11:38:44;76694.25;;;-141.45;38.87
31403;BME280;18039;52.188;21.024;2023-05-03T11:41:13;76653.72;;;-141.45;38.45
31403;BME280;18039;52.188;21.024;2023-05-03T11:43:45;76625.31;;;-141.45;38.13
31403;BME280;18039;52.188;21.024;2023-05-03T11:46:25;76633.44;;;-141.45;37.94
31403;BME280;18039;52.188;21.024;2023-05-03T11:48:55;76653.72;;;-141.45;38.11
31403;BME280;18039;52.188;21.024;2023-05-03T11:51:23;76690.19;;;-141.45;38.62
31403;BME280;18039;52.188;21.024;2023-05-03T11:53:50;76734.78;;;-141.45;37.82
31403;BME280;18039;52.188;21.024;2023-05-03T11:56:18;76767.22;;;-141.45;38.35
31403;BME280;18039;52.188;21.024;2023-05-03T11:58:56;76763.16;;;-141.45;39.02
31403;BME280;18039;52.188;21.024;2023-05-03T12:01:26;76742.91;;;-141.45;39.12
31403;BME280;18039;52.188;21.024;2023-05-03T12:03:56;76726.69;;;-141.45;39.02
31403;BME280;18039;52.188;21.024;2023-05-03T12:06:25;76706.41;;;-141.45;38.81
31403;BME280;18039;52.188;21.024;2023-05-03T12:08:59;76682.09;;;-141.45;38.06
31403;BME280;18039;52.188;21.024;2023-05-03T12:11:26;76678.03;;;-141.45;37.54
31403;BME280;18039;52.188;21.024;2023-05-03T12:14:00;76669.94;;;-141.45;37.25
31403;BME280;18039;52.188;21.024;2023-05-03T12:16:45;76633.44;;;-141.45;37.71
31403;BME280;18039;52.188;21.024;2023-05-03T12:19:34;76637.50;;;-141.45;36.45
31403;BME280;18039;52.188;21.024;2023-05-03T12:22:03;76603.03;;;-141.45;35.94
31403;BME280;18039;52.188;21.024;2023-05-03T12:24:52;76572.63;;;-141.45;35.30
31403;BME280;18039;52.188;21.024;2023-05-03T12:27:19;76580.72;;;-141.45;35.71
31403;BME280;18039;52.188;21.024;2023-05-03T12:29:49;76596.94;;;-141.45;35.04
31403;BME280;18039;52.188;21.024;2023-05-03T12:32:17;76635.47;;;-141.45;34.95
31403;BME280;18039;52.188;21.024;2023-05-03T12:34:48;76667.91;;;-141.45;35.56
31403;BME280;18039;52.188;21.024;2023-05-03T12:37:18;76645.59;;;-141.45;35.95
31403;BME280;18039;52.188;21.024;2023-05-03T12:39:48;76609.09;;;-141.45;36.10
31403;BME280;18039;52.188;21.024;2023-05-03T12:42:36;76568.56;;;-141.45;35.71
31403;BME280;18039;52.188;21.024;2023-05-03T12:45:04;76552.34;;;-141.45;36.39
31403;BME280;18039;52.188;21.024;2023-05-03T12:47:34;76540.19;;;-141.45;35.71
31403;BME280;18039;52.188;21.024;2023-05-03T12:50:04;76552.34;;;-141.45;35.08
31403;BME280;18039;52.188;21.024;2023-05-03T12:52:38;76548.31;;;-141.45;35.14
31403;BME280;18039;52.188;21.024;2023-05-03T12:55:06;76560.47;;;-141.45;35.88
31403;BME280;18039;52.188;21.024;2023-05-03T12:57:37;76560.47;;;-141.45;34.95
31403;BME280;18039;52.188;21.024;2023-05-03T13:00:06;76568.56;;;-141.45;34.90